createdAt,value
2022-09-11T00:03:23.726Z,12.68
2022-09-11T00:09:27.082Z,12.70
2022-09-11T00:16:07.357Z,12.69
2022-09-11T00:22:35.220Z,12.68
2022-09-11T00:28:46.971Z,12.68
2022-09-11T00:35:05.352Z,12.70
2022-09-11T00:41:45.403Z,12.71
2022-09-11T00:48:41.711Z,12.73
2022-09-11T00:55:30.756Z,12.73
2022-09-11T01:01:05.221Z,12.69
2022-09-11T01:07:19.776Z,12.62
2022-09-11T01:14:13.612Z,12.60
2022-09-11T01:21:06.752Z,12.62
2022-09-11T01:28:17.733Z,12.67
2022-09-11T01:34:42.372Z,12.71
2022-09-11T01:41:35.140Z,12.75
2022-09-11T01:47:57.682Z,12.72
2022-09-11T01:54:03.152Z,12.69
2022-09-11T02:00:55.892Z,12.66
2022-09-11T02:06:56.788Z,12.63
2022-09-11T02:13:38.326Z,12.61
2022-09-11T02:20:01.638Z,12.60
2022-09-11T02:26:41.180Z,12.59
2022-09-11T02:32:41.519Z,12.59
2022-09-11T02:39:07.079Z,12.58
2022-09-11T02:45:29.981Z,12.58
2022-09-11T02:52:33.043Z,12.57
2022-09-11T02:59:24.521Z,12.57
2022-09-11T03:05:59.757Z,12.57
2022-09-11T03:12:57.896Z,12.57
2022-09-11T03:20:03.465Z,12.56
2022-09-11T03:26:59.519Z,12.55
2022-09-11T03:33:48.157Z,12.57
2022-09-11T03:40:38.451Z,12.60
2022-09-11T03:47:05.404Z,12.61
2022-09-11T03:53:29.511Z,12.60
2022-09-11T04:00:00.606Z,12.61
2022-09-11T04:06:40.140Z,12.62
2022-09-11T04:13:06.854Z,12.64
2022-09-11T04:19:21.610Z,12.68
2022-09-11T04:25:55.899Z,12.71
2022-09-11T04:31:27.451Z,12.74
2022-09-11T04:36:31.919Z,12.76
2022-09-11T04:42:31.674Z,12.77
2022-09-11T04:48:44.404Z,12.79
2022-09-11T04:55:16.400Z,12.82
2022-09-11T05:01:05.667Z,12.87
2022-09-11T05:07:17.672Z,12.90
2022-09-11T05:13:41.501Z,12.93
2022-09-11T05:19:56.004Z,12.98
2022-09-11T05:25:51.347Z,13.06
2022-09-11T05:32:25.070Z,13.19
2022-09-11T05:38:50.823Z,13.28
2022-09-11T05:45:00.086Z,13.36
2022-09-11T05:50:59.343Z,13.48
2022-09-11T05:57:07.414Z,13.62
2022-09-11T06:04:08.663Z,13.80
2022-09-11T06:10:39.094Z,13.98
2022-09-11T06:16:30.696Z,14.15
2022-09-11T06:23:17.293Z,14.15
2022-09-11T06:29:07.920Z,14.12
2022-09-11T06:35:52.593Z,14.14
2022-09-11T06:41:48.596Z,14.26
2022-09-11T06:48:21.843Z,14.46
2022-09-11T06:54:31.204Z,14.68
2022-09-11T07:01:04.629Z,14.85
2022-09-11T07:06:57.892Z,14.87
2022-09-11T07:13:53.752Z,14.86
2022-09-11T07:20:12.162Z,14.92
2022-09-11T07:26:44.388Z,14.91
2022-09-11T07:32:39.059Z,14.93
2022-09-11T07:38:36.988Z,14.98
2022-09-11T07:44:25.284Z,15.10
2022-09-11T07:49:39.633Z,15.23
2022-09-11T07:55:28.256Z,15.34
2022-09-11T08:00:41.064Z,15.32
2022-09-11T08:06:43.860Z,15.29
2022-09-11T08:12:11.297Z,15.30
2022-09-11T08:17:17.061Z,15.34
2022-09-11T08:22:40.365Z,15.51
2022-09-11T08:28:12.640Z,15.84
2022-09-11T08:33:33.447Z,16.08
2022-09-11T08:39:05.283Z,16.14
2022-09-11T08:44:49.651Z,16.06
2022-09-11T08:50:51.717Z,16.05
2022-09-11T08:56:05.486Z,16.16
2022-09-11T09:02:11.370Z,16.27
2022-09-11T09:08:16.880Z,16.42
2022-09-11T09:14:24.346Z,16.52
2022-09-11T09:20:36.013Z,16.68
2022-09-11T09:26:01.408Z,16.99
2022-09-11T09:31:39.178Z,17.23
2022-09-11T09:37:48.770Z,17.25
2022-09-11T09:44:19.786Z,17.29
2022-09-11T09:50:10.260Z,17.22
2022-09-11T09:55:42.787Z,17.15
2022-09-11T10:02:18.675Z,17.28
2022-09-11T10:08:16.872Z,17.36
2022-09-11T10:14:08.942Z,17.55
2022-09-11T10:20:00.679Z,17.74
2022-09-11T10:25:47.894Z,18.06
2022-09-11T10:31:18.658Z,18.24
2022-09-11T10:37:02.637Z,18.27
2022-09-11T10:42:41.476Z,18.33
2022-09-11T10:48:45.647Z,18.53
2022-09-11T10:55:33.463Z,18.72
2022-09-11T11:01:07.024Z,18.77
2022-09-11T11:06:53.150Z,18.89
2022-09-11T11:13:12.681Z,18.95
2022-09-11T11:19:28.454Z,18.93
2022-09-11T11:25:34.843Z,19.11
2022-09-11T11:31:49.681Z,19.19
2022-09-11T11:38:22.351Z,19.22
2022-09-11T11:44:12.191Z,19.17
2022-09-11T11:50:10.139Z,19.06
2022-09-11T11:55:48.097Z,18.75
2022-09-11T12:01:31.256Z,18.58
2022-09-11T12:06:45.931Z,18.47
2022-09-11T12:12:43.308Z,18.41
2022-09-11T12:19:17.723Z,18.52
2022-09-11T12:24:54.514Z,18.60
2022-09-11T12:29:57.948Z,18.67
2022-09-11T12:35:29.763Z,18.72
2022-09-11T12:40:53.367Z,18.89
2022-09-11T12:46:51.645Z,18.97
2022-09-11T12:52:02.633Z,19.01
2022-09-11T12:57:36.365Z,18.75
2022-09-11T13:03:08.912Z,17.98
2022-09-11T13:08:24.405Z,17.60
2022-09-11T13:14:05.724Z,17.47
2022-09-11T13:19:57.271Z,17.56
2022-09-11T13:25:26.001Z,17.72
2022-09-11T13:30:48.682Z,17.73
2022-09-11T13:36:44.750Z,17.71
2022-09-11T13:42:17.040Z,17.73
2022-09-11T13:47:45.633Z,17.77
2022-09-11T13:53:34.739Z,17.89
2022-09-11T13:59:02.712Z,18.10
2022-09-11T14:04:11.580Z,18.21
2022-09-11T14:09:24.233Z,18.20
2022-09-11T14:14:47.018Z,18.18
2022-09-11T14:19:58.956Z,18.11
2022-09-11T14:25:59.822Z,17.98
2022-09-11T14:31:49.494Z,17.86
2022-09-11T14:37:17.647Z,17.89
2022-09-11T14:42:36.920Z,17.88
2022-09-11T14:48:15.310Z,17.86
2022-09-11T14:53:35.163Z,17.82
2022-09-11T14:59:06.423Z,17.74
2022-09-11T15:05:04.771Z,17.57
2022-09-11T15:10:38.647Z,17.38
2022-09-11T15:15:44.643Z,17.30
2022-09-11T15:21:03.769Z,17.25
2022-09-11T15:26:18.555Z,17.15
2022-09-11T15:31:40.685Z,16.99
2022-09-11T15:37:06.076Z,16.77
2022-09-11T15:43:27.761Z,16.01
2022-09-11T15:49:07.808Z,15.37
2022-09-11T15:54:28.326Z,15.06
2022-09-11T16:00:48.922Z,14.85
2022-09-11T16:06:27.380Z,14.78
2022-09-11T16:11:47.979Z,14.77
2022-09-11T16:17:09.340Z,14.82
2022-09-11T16:22:11.572Z,14.82
2022-09-11T16:27:24.476Z,14.80
2022-09-11T16:32:56.181Z,14.78
2022-09-11T16:39:25.877Z,14.75
2022-09-11T16:44:41.873Z,14.70
2022-09-11T16:50:07.280Z,14.66
2022-09-11T16:55:14.384Z,14.60
2022-09-11T17:00:21.803Z,14.53
2022-09-11T17:05:33.041Z,14.46
2022-09-11T17:10:58.649Z,14.38
2022-09-11T17:16:16.680Z,14.32
2022-09-11T17:21:29.149Z,14.27
2022-09-11T17:26:34.608Z,14.21
2022-09-11T17:32:10.618Z,14.16
2022-09-11T17:37:47.377Z,14.14
2022-09-11T17:42:54.987Z,14.14
2022-09-11T17:48:58.179Z,14.15
2022-09-11T17:54:25.331Z,14.12
2022-09-11T17:59:30.261Z,14.05
2022-09-11T18:04:48.936Z,13.97
2022-09-11T18:09:58.954Z,13.89
2022-09-11T18:15:06.989Z,13.82
2022-09-11T18:20:17.981Z,13.75
2022-09-11T18:25:26.146Z,13.70
2022-09-11T18:30:31.712Z,13.68
2022-09-11T18:35:34.998Z,13.68
2022-09-11T18:40:42.784Z,13.70
2022-09-11T18:45:53.664Z,13.70
2022-09-11T18:50:55.850Z,13.72
2022-09-11T18:56:11.299Z,13.75
2022-09-11T19:01:17.346Z,13.76
2022-09-11T19:06:35.494Z,13.80
2022-09-11T19:11:54.962Z,13.82
2022-09-11T19:17:28.043Z,13.85
2022-09-11T19:22:38.861Z,13.89
2022-09-11T19:27:42.471Z,13.91
2022-09-11T19:33:27.585Z,13.95
2022-09-11T19:39:50.979Z,13.97
2022-09-11T19:45:38.496Z,13.99
2022-09-11T19:51:06.793Z,13.96
2022-09-11T19:56:36.726Z,13.98
2022-09-11T20:01:50.460Z,13.94
2022-09-11T20:07:34.848Z,13.90
2022-09-11T20:12:51.875Z,13.82
2022-09-11T20:18:32.247Z,13.72
2022-09-11T20:24:20.533Z,13.63
2022-09-11T20:29:56.010Z,13.59
2022-09-11T20:35:00.676Z,13.56
2022-09-11T20:40:42.713Z,13.51
2022-09-11T20:46:32.777Z,13.48
2022-09-11T20:52:39.558Z,13.49
2022-09-11T20:59:12.065Z,13.50
2022-09-11T21:05:42.575Z,13.50
2022-09-11T21:11:52.802Z,13.51
2022-09-11T21:18:29.727Z,13.42
2022-09-11T21:24:28.825Z,13.37
2022-09-11T21:30:11.979Z,13.35
2022-09-11T21:36:34.251Z,13.36
2022-09-11T21:43:27.676Z,13.31
2022-09-11T21:48:47.643Z,13.28
2022-09-11T21:55:13.453Z,13.22
2022-09-11T22:01:22.551Z,13.14
2022-09-11T22:07:26.012Z,13.06
2022-09-11T22:13:41.028Z,12.97
2022-09-11T22:19:45.861Z,12.85
2022-09-11T22:25:58.674Z,12.76
2022-09-11T22:32:26.745Z,12.66
2022-09-11T22:38:16.461Z,12.56
2022-09-11T22:44:12.452Z,12.46
2022-09-11T22:50:42.652Z,12.40
2022-09-11T22:57:29.330Z,12.32
2022-09-11T23:03:55.032Z,12.25
2022-09-11T23:10:35.801Z,12.18
2022-09-11T23:17:01.246Z,12.07
2022-09-11T23:23:32.822Z,11.98
2022-09-11T23:30:09.610Z,11.89
2022-09-11T23:36:50.670Z,11.77
2022-09-11T23:43:11.298Z,11.67
2022-09-11T23:49:42.965Z,11.56
2022-09-11T23:56:05.663Z,11.49
